Time;durP1;ratioP1;P1;durP2;ratioP2;P2;SDS_P1;SDS_P2;PMS_P1;PMS_P2;Temp;Humidity;BMP_temperature;BMP_pressure;BME280_temperature;BME280_humidity;BME280_pressure;Samples;Min_cycle;Max_cycle;Signal;HPM_P1;HPM_P2
2023/08/12 00:00:13;;;;;;;5.18;1.90;;;26.10;72.90;;;;;;4973416;28;20032;-82
2023/08/12 00:02:40;;;;;;;2.63;1.80;;;26.10;73.10;;;;;;4962463;28;20110;-82
2023/08/12 00:05:07;;;;;;;4.25;1.60;;;26.00;73.10;;;;;;4968611;28;20041;-83
2023/08/12 00:07:36;;;;;;;3.75;1.55;;;26.00;73.30;;;;;;4963369;28;20034;-83
2023/08/12 00:10:04;;;;;;;2.60;1.75;;;26.00;73.30;;;;;;4955293;28;20038;-83
2023/08/12 00:12:33;;;;;;;2.40;1.83;;;26.00;73.30;;;;;;4974300;28;20047;-82
2023/08/12 00:14:59;;;;;;;4.03;1.75;;;26.00;73.50;;;;;;4973539;28;20055;-83
2023/08/12 00:17:25;;;;;;;2.25;1.60;;;26.00;73.60;;;;;;4962494;28;20066;-83
2023/08/12 00:19:50;;;;;;;3.15;1.95;;;26.00;73.80;;;;;;4963386;28;20503;-83
2023/08/12 00:22:16;;;;;;;3.17;1.98;;;26.00;73.80;;;;;;4953173;28;20485;-85
2023/08/12 00:24:42;;;;;;;4.10;1.80;;;26.00;73.80;;;;;;4976459;28;20062;-83
2023/08/12 00:27:08;;;;;;;4.25;1.80;;;25.90;73.90;;;;;;4967664;28;20496;-82
2023/08/12 00:29:35;;;;;;;2.95;2.03;;;25.90;74.10;;;;;;4973885;28;20054;-81
2023/08/12 00:32:01;;;;;;;2.72;2.05;;;25.90;74.50;;;;;;4949216;28;20035;-84
2023/08/12 00:34:27;;;;;;;4.68;1.88;;;25.90;74.60;;;;;;4977242;28;20035;-83
2023/08/12 00:36:53;;;;;;;4.63;1.92;;;25.90;74.90;;;;;;4973062;28;20508;-82
2023/08/12 00:39:18;;;;;;;4.43;1.73;;;25.80;74.70;;;;;;4966131;28;20066;-82
2023/08/12 00:41:44;;;;;;;2.92;1.70;;;25.80;74.60;;;;;;4978185;28;20101;-81
2023/08/12 00:44:10;;;;;;;4.82;2.00;;;25.80;74.60;;;;;;4959308;28;20429;-83
2023/08/12 00:46:38;;;;;;;2.78;1.98;;;25.80;74.80;;;;;;4959310;28;20047;-82
2023/08/12 00:49:04;;;;;;;5.53;2.13;;;25.80;74.90;;;;;;4972004;28;20031;-82
2023/08/12 00:51:30;;;;;;;3.35;1.90;;;25.80;74.80;;;;;;4975232;28;20050;-86
2023/08/12 00:53:59;;;;;;;2.85;1.80;;;25.80;75.00;;;;;;4974227;28;20023;-82
2023/08/12 00:56:26;;;;;;;3.75;1.70;;;25.80;75.40;;;;;;4965179;28;20031;-83
2023/08/12 00:58:53;;;;;;;3.55;2.10;;;25.70;75.70;;;;;;4969438;28;20035;-86
2023/08/12 01:01:19;;;;;;;3.13;1.85;;;25.70;75.80;;;;;;4968165;28;20477;-82
2023/08/12 01:03:45;;;;;;;4.75;1.98;;;25.70;75.80;;;;;;4970322;28;20027;-81
2023/08/12 01:06:11;;;;;;;2.70;2.05;;;25.70;75.80;;;;;;4964207;28;20496;-81
2023/08/12 01:08:37;;;;;;;5.15;2.30;;;25.70;76.00;;;;;;4972950;28;20086;-82
2023/08/12 01:11:28;;;;;;;4.47;2.10;;;25.70;76.10;;;;;;4969612;28;21766;-82
2023/08/12 01:14:14;;;;;;;3.72;2.00;;;25.70;76.50;;;;;;4930800;28;20039;-82
2023/08/12 01:16:44;;;;;;;3.40;2.45;;;25.60;76.60;;;;;;4958810;28;20178;-81
2023/08/12 01:19:12;;;;;;;;;;;25.60;76.70;;;;;;4968727;28;20027;-81
2023/08/12 01:21:43;;;;;;;3.95;2.00;;;25.60;77.10;;;;;;4941905;28;19957;-81
2023/08/12 01:24:09;;;;;;;5.68;2.70;;;25.50;77.10;;;;;;4957168;28;20038;-81
2023/08/12 01:26:34;;;;;;;4.82;2.60;;;25.50;77.00;;;;;;4971156;28;20492;-81
2023/08/12 01:29:00;;;;;;;3.13;2.15;;;25.50;77.10;;;;;;4973553;28;20034;-83
2023/08/12 01:32:07;;;;;;;10.27;2.90;;;25.40;77.10;;;;;;4971982;28;20035;-82
2023/08/12 01:34:44;;;;;;;2.95;2.20;;;25.40;77.30;;;;;;4894521;29;20037;-82
2023/08/12 01:37:17;;;;;;;3.25;2.40;;;25.30;77.40;;;;;;4965655;28;20054;-82
2023/08/12 01:39:45;;;;;;;3.28;2.42;;;25.30;77.50;;;;;;4973205;28;20030;-82
2023/08/12 01:42:11;;;;;;;4.03;2.17;;;25.30;77.70;;;;;;4968651;28;20031;-81
2023/08/12 01:44:37;;;;;;;3.08;2.40;;;25.20;77.60;;;;;;4969916;28;20023;-83
2023/08/12 01:47:03;;;;;;;4.50;2.58;;;25.20;77.80;;;;;;4962228;28;20037;-82
2023/08/12 01:49:28;;;;;;;3.83;2.58;;;25.20;77.80;;;;;;4956710;28;20027;-84
2023/08/12 01:51:54;;;;;;;3.65;2.70;;;25.20;78.10;;;;;;4976087;28;20376;-84
2023/08/12 01:54:20;;;;;;;3.55;2.58;;;25.20;77.90;;;;;;4975550;28;20089;-83
2023/08/12 01:56:45;;;;;;;3.42;2.70;;;25.20;77.80;;;;;;4965234;28;20035;-81
2023/08/12 01:59:11;;;;;;;3.92;2.55;;;25.20;77.60;;;;;;4969271;28;20062;-82
2023/08/12 02:01:37;;;;;;;5.95;2.88;;;25.20;77.70;;;;;;4969541;28;20429;-82
2023/08/12 02:04:03;;;;;;;2.80;1.95;;;25.20;77.60;;;;;;4966257;28;20524;-82
2023/08/12 02:06:28;;;;;;;4.78;2.88;;;25.10;77.60;;;;;;4953300;28;20434;-82
2023/08/12 02:08:54;;;;;;;4.07;2.78;;;25.20;77.90;;;;;;4968257;28;20093;-82
2023/08/12 02:11:20;;;;;;;4.38;2.55;;;25.10;77.80;;;;;;4972355;28;20525;-81
2023/08/12 02:13:45;;;;;;;2.75;2.25;;;25.10;77.80;;;;;;4967295;28;20073;-81
2023/08/12 02:16:11;;;;;;;6.15;3.15;;;25.10;77.90;;;;;;4965066;28;20474;-81
2023/08/12 02:18:36;;;;;;;4.53;2.95;;;25.10;78.10;;;;;;4974783;28;20031;-81
2023/08/12 02:21:02;;;;;;;4.25;3.05;;;25.10;78.20;;;;;;4960039;28;20042;-79
2023/08/12 02:23:28;;;;;;;4.05;2.72;;;25.10;78.40;;;;;;4965989;28;20041;-81
2023/08/12 02:25:54;;;;;;;5.05;2.45;;;25.10;78.40;;;;;;4973406;28;20082;-82
2023/08/12 02:28:20;;;;;;;3.78;2.47;;;25.20;78.50;;;;;;4948880;28;20045;-81
2023/08/12 02:30:45;;;;;;;3.00;2.40;;;25.10;78.50;;;;;;4962972;28;20485;-81
2023/08/12 02:33:11;;;;;;;2.92;2.40;;;25.10;78.40;;;;;;4960193;28;20075;-81
2023/08/12 02:35:37;;;;;;;4.18;2.38;;;25.20;78.70;;;;;;4956469;28;20039;-82
2023/08/12 02:38:03;;;;;;;4.28;2.78;;;25.10;78.80;;;;;;4961918;28;20089;-81
2023/08/12 02:40:29;;;;;;;4.43;2.67;;;25.10;78.70;;;;;;4959999;28;20105;-81
2023/08/12 02:42:54;;;;;;;3.03;2.38;;;25.10;78.70;;;;;;4973563;28;20038;-82
2023/08/12 02:45:20;;;;;;;6.20;2.72;;;25.10;78.80;;;;;;4961856;28;20050;-80
2023/08/12 02:47:46;;;;;;;3.47;2.50;;;25.10;79.10;;;;;;4966037;28;20117;-81
2023/08/12 02:50:11;;;;;;;4.13;3.00;;;25.10;78.80;;;;;;4972367;28;20553;-81
2023/08/12 02:52:37;;;;;;;4.15;2.60;;;25.00;78.90;;;;;;4972537;28;20031;-81
2023/08/12 02:55:03;;;;;;;4.70;2.78;;;25.00;78.80;;;;;;4965567;28;20031;-81
2023/08/12 02:57:29;;;;;;;4.78;2.70;;;25.00;78.90;;;;;;4967986;28;20058;-80
2023/08/12 02:59:54;;;;;;;3.75;2.38;;;25.00;79.00;;;;;;4958741;28;20047;-82
2023/08/12 03:02:20;;;;;;;5.18;2.80;;;25.00;79.00;;;;;;4956543;28;20042;-82
2023/08/12 03:04:46;;;;;;;3.40;2.30;;;25.00;78.90;;;;;;5077603;23;20060;-80
2023/08/12 03:07:12;;;;;;;2.45;2.10;;;25.00;78.30;;;;;;4937006;29;20051;-87
2023/08/12 03:09:38;;;;;;;4.78;2.15;;;25.00;77.60;;;;;;4943460;28;20034;-80
2023/08/12 03:12:04;;;;;;;4.32;1.90;;;25.00;77.40;;;;;;4944810;28;20527;-87
2023/08/12 03:14:31;;;;;;;2.78;2.17;;;25.00;77.20;;;;;;4938921;28;20146;-87
2023/08/12 03:16:57;;;;;;;4.15;2.05;;;24.90;77.20;;;;;;4949641;28;20039;-80
2023/08/12 03:19:22;;;;;;;4.25;2.35;;;24.90;77.30;;;;;;4936956;29;20822;-79
2023/08/12 03:21:48;;;;;;;3.83;2.42;;;24.90;77.30;;;;;;4941251;28;20032;-82
2023/08/12 03:24:14;;;;;;;2.10;1.80;;;24.90;77.50;;;;;;4950481;28;20034;-81
2023/08/12 03:26:39;;;;;;;3.15;2.35;;;24.80;77.50;;;;;;4943531;28;20044;-88
2023/08/12 03:29:05;;;;;;;3.90;2.75;;;24.80;78.10;;;;;;4937046;28;20035;-78
2023/08/12 03:31:31;;;;;;;3.88;2.60;;;24.80;77.70;;;;;;4948931;28;20039;-80
2023/08/12 03:33:56;;;;;;;3.75;2.20;;;24.80;77.80;;;;;;4936334;29;20105;-79
2023/08/12 03:36:22;;;;;;;3.92;2.40;;;24.80;77.70;;;;;;4942426;28;20074;-89
2023/08/12 03:38:48;;;;;;;6.18;2.17;;;24.80;77.80;;;;;;4949882;28;20082;-87
2023/08/12 03:41:14;;;;;;;3.55;2.45;;;24.80;78.00;;;;;;4945904;28;20496;-79
2023/08/12 03:43:39;;;;;;;4.03;2.17;;;24.80;78.30;;;;;;4933768;29;20035;-79
2023/08/12 03:46:05;;;;;;;4.35;2.65;;;24.80;78.50;;;;;;4952673;28;20035;-79
2023/08/12 03:48:31;;;;;;;5.88;2.50;;;24.80;78.70;;;;;;4949016;28;20126;-78
2023/08/12 03:50:57;;;;;;;3.38;2.10;;;24.70;78.80;;;;;;4953334;28;20031;-78
2023/08/12 03:53:23;;;;;;;4.25;2.50;;;24.70;78.90;;;;;;4953389;28;20099;-79
2023/08/12 03:55:49;;;;;;;2.65;2.00;;;24.70;78.90;;;;;;4948137;28;20122;-87
2023/08/12 03:58:14;;;;;;;3.72;2.35;;;24.70;79.00;;;;;;4954395;28;20035;-88
2023/08/12 04:00:43;;;;;;;3.70;2.35;;;24.70;79.20;;;;;;4966585;28;20482;-88
2023/08/12 04:03:09;;;;;;;3.90;2.58;;;24.70;79.30;;;;;;4943198;28;20107;-88
2023/08/12 04:05:35;;;;;;;4.47;2.60;;;24.70;79.40;;;;;;4948977;28;20114;-87
2023/08/12 04:08:00;;;;;;;3.85;2.45;;;24.70;79.70;;;;;;4939549;28;20043;-87
2023/08/12 04:10:26;;;;;;;5.32;2.65;;;24.60;79.90;;;;;;4961526;28;20027;-88
2023/08/12 04:12:52;;;;;;;2.83;2.53;;;24.60;80.00;;;;;;4944981;28;20046;-88
2023/08/12 04:15:17;;;;;;;4.22;2.38;;;24.60;80.00;;;;;;4953785;28;20058;-88
2023/08/12 04:17:43;;;;;;;3.47;2.40;;;24.60;80.00;;;;;;4944126;28;20093;-86
2023/08/12 04:20:10;;;;;;;4.85;2.50;;;24.60;80.40;;;;;;4951533;28;20095;-87
2023/08/12 04:22:36;;;;;;;4.43;2.80;;;24.60;80.30;;;;;;4939432;28;20035;-86
2023/08/12 04:25:02;;;;;;;3.17;2.20;;;24.60;80.50;;;;;;4951918;28;20376;-86
2023/08/12 04:27:28;;;;;;;4.10;2.45;;;24.60;80.60;;;;;;4935768;29;20051;-85
2023/08/12 04:29:53;;;;;;;3.00;2.47;;;24.50;80.80;;;;;;4951830;28;20462;-85
2023/08/12 04:32:19;;;;;;;2.30;2.00;;;24.50;80.90;;;;;;4955317;28;20467;-87
2023/08/12 04:34:46;;;;;;;3.13;2.42;;;24.50;81.00;;;;;;4951857;28;20027;-86
2023/08/12 04:37:12;;;;;;;4.18;2.53;;;24.50;81.10;;;;;;4947725;28;20054;-87
2023/08/12 04:39:37;;;;;;;3.80;2.35;;;24.50;81.30;;;;;;4957149;28;20788;-87
2023/08/12 04:42:03;;;;;;;6.93;3.05;;;24.50;81.50;;;;;;4971780;28;20109;-90
2023/08/12 04:44:29;;;;;;;3.97;3.13;;;24.50;81.40;;;;;;4954570;28;20046;-86
2023/08/12 04:46:55;;;;;;;4.25;3.00;;;24.50;81.40;;;;;;4949203;28;20024;-86
2023/08/12 04:49:21;;;;;;;3.90;2.95;;;24.50;81.50;;;;;;4941800;28;20063;-88
2023/08/12 04:51:46;;;;;;;4.78;3.55;;;24.50;81.70;;;;;;4949339;28;20067;-87
2023/08/12 04:54:12;;;;;;;6.32;2.75;;;24.50;82.20;;;;;;4955951;28;20047;-83
2023/08/12 04:56:38;;;;;;;4.93;2.92;;;24.50;82.10;;;;;;4943863;28;20540;-82
2023/08/12 04:59:04;;;;;;;4.47;2.80;;;24.40;82.10;;;;;;4947027;28;20050;-82
2023/08/12 05:01:29;;;;;;;4.55;2.90;;;24.50;82.40;;;;;;4948000;28;20043;-82
2023/08/12 05:03:55;;;;;;;9.05;2.95;;;24.50;82.40;;;;;;4954157;28;20078;-83
2023/08/12 05:06:21;;;;;;;3.63;3.13;;;24.50;82.50;;;;;;4952379;28;20454;-82
2023/08/12 05:08:46;;;;;;;3.40;2.55;;;24.50;82.60;;;;;;4934698;28;20031;-82
2023/08/12 05:11:12;;;;;;;4.22;2.63;;;24.50;82.60;;;;;;4953834;28;20023;-82
2023/08/12 05:13:38;;;;;;;3.75;2.92;;;24.50;82.90;;;;;;4951675;28;20045;-81
2023/08/12 05:16:04;;;;;;;5.40;2.72;;;24.50;82.60;;;;;;4943497;28;20118;-82
2023/08/12 05:18:29;;;;;;;5.10;3.22;;;24.50;82.90;;;;;;4936291;29;20039;-82
2023/08/12 05:20:55;;;;;;;4.18;2.80;;;24.50;82.60;;;;;;4954347;28;20031;-82
2023/08/12 05:23:21;;;;;;;5.97;3.35;;;24.40;82.60;;;;;;4936275;29;20418;-82
2023/08/12 05:25:47;;;;;;;5.30;3.22;;;24.50;82.80;;;;;;4947468;28;20032;-83
2023/08/12 05:28:12;;;;;;;4.70;3.15;;;24.40;82.90;;;;;;4950771;28;20470;-82
2023/08/12 05:30:38;;;;;;;3.70;2.92;;;24.50;83.00;;;;;;4947931;28;20354;-82
2023/08/12 05:33:04;;;;;;;3.80;2.90;;;24.50;83.00;;;;;;4949141;28;20035;-85
2023/08/12 05:35:34;;;;;;;5.07;3.38;;;24.50;83.00;;;;;;4956582;28;20031;-79
2023/08/12 05:38:00;;;;;;;4.22;2.80;;;24.50;83.10;;;;;;4955936;28;20532;-76
2023/08/12 05:40:27;;;;;;;7.43;2.85;;;24.50;83.20;;;;;;4955789;28;20126;-82
2023/08/12 05:42:52;;;;;;;3.60;3.00;;;24.50;83.50;;;;;;4957129;28;20098;-80
2023/08/12 05:45:18;;;;;;;4.40;3.30;;;24.50;83.30;;;;;;4946591;28;20462;-81
2023/08/12 05:47:44;;;;;;;4.60;3.22;;;24.50;83.10;;;;;;4932724;29;20441;-84
2023/08/12 05:50:10;;;;;;;3.97;2.90;;;24.50;83.00;;;;;;4922100;28;20039;-79
2023/08/12 05:52:35;;;;;;;5.78;3.10;;;24.50;83.30;;;;;;4950318;28;20041;-78
2023/08/12 05:55:01;;;;;;;4.38;3.30;;;24.50;83.20;;;;;;4949535;28;20694;-79
2023/08/12 05:57:27;;;;;;;4.57;2.95;;;24.50;83.10;;;;;;4928021;28;20042;-78
2023/08/12 05:59:53;;;;;;;5.22;3.70;;;24.50;83.30;;;;;;4949683;28;20042;-87
2023/08/12 06:02:19;;;;;;;4.43;3.40;;;24.50;83.40;;;;;;4954223;28;20083;-79
2023/08/12 06:04:44;;;;;;;3.88;3.47;;;24.60;83.50;;;;;;4968526;28;20501;-78
2023/08/12 06:07:10;;;;;;;7.15;3.47;;;24.60;83.40;;;;;;4975124;28;20465;-79
2023/08/12 06:09:36;;;;;;;4.20;3.10;;;24.60;83.70;;;;;;4964073;28;20066;-79
2023/08/12 06:12:02;;;;;;;5.30;3.55;;;24.60;83.80;;;;;;4941297;29;20060;-79
2023/08/12 06:14:28;;;;;;;4.72;3.53;;;24.70;83.80;;;;;;4944618;29;20031;-79
2023/08/12 06:16:53;;;;;;;3.50;3.20;;;24.70;83.60;;;;;;4936779;29;20028;-79
2023/08/12 06:19:19;;;;;;;6.88;3.42;;;24.70;83.60;;;;;;4936641;29;20036;-79
2023/08/12 06:21:45;;;;;;;5.40;3.78;;;24.70;83.70;;;;;;4936696;29;20032;-79
2023/08/12 06:24:10;;;;;;;6.63;3.60;;;24.70;83.70;;;;;;4919584;29;20378;-79
2023/08/12 06:26:36;;;;;;;6.45;3.58;;;24.70;83.60;;;;;;4936535;29;20451;-79
2023/08/12 06:29:02;;;;;;;4.18;3.40;;;24.70;83.80;;;;;;4941690;29;20421;-79
2023/08/12 06:31:28;;;;;;;3.80;3.13;;;24.80;83.80;;;;;;4955499;29;20405;-79
2023/08/12 06:33:53;;;;;;;3.42;3.13;;;24.80;83.80;;;;;;4955380;28;20021;-79
2023/08/12 06:36:19;;;;;;;6.15;4.13;;;24.80;83.90;;;;;;4955711;28;20028;-79
2023/08/12 06:38:45;;;;;;;5.18;3.38;;;24.90;83.70;;;;;;4955353;28;20023;-79
2023/08/12 06:41:10;;;;;;;6.20;3.38;;;24.90;83.40;;;;;;4948840;28;20378;-78
2023/08/12 06:43:36;;;;;;;4.75;3.28;;;24.90;83.60;;;;;;4936118;29;20039;-79
2023/08/12 06:46:02;;;;;;;5.07;3.05;;;25.00;83.50;;;;;;4935941;29;20043;-79
2023/08/12 06:48:28;;;;;;;6.93;3.40;;;25.00;83.20;;;;;;4935524;29;20353;-79
2023/08/12 06:50:55;;;;;;;3.65;3.10;;;25.10;83.10;;;;;;4937257;29;20032;-79
2023/08/12 06:53:21;;;;;;;4.15;3.20;;;25.10;83.00;;;;;;4938171;29;20418;-79
2023/08/12 06:55:47;;;;;;;4.07;2.70;;;25.20;82.80;;;;;;4935708;29;20055;-79
2023/08/12 06:58:14;;;;;;;3.13;2.75;;;25.20;82.80;;;;;;4936170;29;20516;-79
2023/08/12 07:00:41;;;;;;;3.88;2.78;;;25.30;83.00;;;;;;4936305;29;20063;-79
2023/08/12 07:03:06;;;;;;;8.18;3.15;;;25.40;83.20;;;;;;4936535;29;20049;-79
2023/08/12 07:05:32;;;;;;;3.83;2.65;;;25.40;83.20;;;;;;4936974;29;20051;-79
2023/08/12 07:07:58;;;;;;;5.07;3.30;;;25.50;83.10;;;;;;4936131;29;20050;-79
2023/08/12 07:10:24;;;;;;;5.85;2.78;;;25.50;83.00;;;;;;4936028;29;20107;-79
2023/08/12 07:12:49;;;;;;;3.10;2.22;;;25.60;82.80;;;;;;4936479;29;20504;-79
2023/08/12 07:15:15;;;;;;;5.07;3.10;;;25.60;82.10;;;;;;4937928;28;20049;-78
2023/08/12 07:17:41;;;;;;;3.53;2.72;;;25.70;81.70;;;;;;4955188;28;20063;-79
2023/08/12 07:20:07;;;;;;;3.30;2.50;;;25.70;81.30;;;;;;4937476;29;20059;-79
2023/08/12 07:22:33;;;;;;;2.42;1.98;;;25.80;81.10;;;;;;4954967;28;20031;-81
2023/08/12 07:25:02;;;;;;;2.55;2.35;;;25.70;81.40;;;;;;4954649;28;20120;-79
2023/08/12 07:27:28;;;;;;;3.25;1.85;;;25.90;80.90;;;;;;4954867;28;20031;-80
2023/08/12 07:29:54;;;;;;;4.47;2.53;;;25.90;80.40;;;;;;4954769;28;20032;-79
2023/08/12 07:32:19;;;;;;;3.40;2.00;;;26.00;80.20;;;;;;4954796;28;20031;-80
2023/08/12 07:34:45;;;;;;;2.80;2.33;;;26.00;80.30;;;;;;4954289;28;20531;-80
2023/08/12 07:37:11;;;;;;;2.97;2.10;;;26.10;79.90;;;;;;4937134;29;20059;-80
2023/08/12 07:39:37;;;;;;;3.83;2.30;;;26.20;79.80;;;;;;4937619;29;20039;-80
2023/08/12 07:42:03;;;;;;;3.70;2.15;;;26.20;79.40;;;;;;4949332;28;20063;-79
2023/08/12 07:44:29;;;;;;;2.15;1.95;;;26.30;79.30;;;;;;4954795;29;20365;-79
2023/08/12 07:46:55;;;;;;;3.17;2.00;;;26.30;79.00;;;;;;4954747;29;20023;-79
2023/08/12 07:49:22;;;;;;;2.58;1.88;;;26.40;79.00;;;;;;4954648;28;20453;-78
2023/08/12 07:51:47;;;;;;;7.05;3.13;;;26.50;77.30;;;;;;4954738;28;20162;-79
2023/08/12 07:54:13;;;;;;;2.65;2.03;;;26.40;76.60;;;;;;4954645;28;20027;-79
2023/08/12 07:56:39;;;;;;;6.05;1.92;;;26.40;76.70;;;;;;4954548;29;20031;-79
2023/08/12 07:59:05;;;;;;;2.80;1.88;;;26.40;77.60;;;;;;4956021;28;20039;-79
2023/08/12 08:01:30;;;;;;;3.42;2.30;;;26.50;78.10;;;;;;4957938;29;20366;-79
2023/08/12 08:03:56;;;;;;;4.97;2.00;;;26.60;78.00;;;;;;4958165;28;20043;-79
2023/08/12 08:06:23;;;;;;;2.58;2.00;;;26.70;76.60;;;;;;4958334;29;20347;-79
2023/08/12 08:08:49;;;;;;;4.20;2.28;;;26.70;76.70;;;;;;4958283;29;20027;-80
2023/08/12 08:11:15;;;;;;;1.88;1.60;;;26.80;76.80;;;;;;4957055;28;20445;-80
2023/08/12 08:13:40;;;;;;;5.32;2.00;;;26.90;76.80;;;;;;4940874;29;20029;-80
2023/08/12 08:16:06;;;;;;;1.65;1.52;;;27.00;76.40;;;;;;4958230;28;20035;-80
2023/08/12 08:18:32;;;;;;;3.22;2.25;;;27.00;76.00;;;;;;4958305;29;20086;-79
2023/08/12 08:20:58;;;;;;;4.15;1.75;;;27.20;76.10;;;;;;4957841;28;20083;-80
2023/08/12 19:16:38;;;;;;;2.17;1.27;;;29.00;75.90;;;;;;4939250;26;20046;-81
2023/08/12 19:19:03;;;;;;;3.42;1.77;;;29.00;76.70;;;;;;4955443;28;20117;-82
2023/08/12 19:21:29;;;;;;;1.20;1.10;;;29.00;76.50;;;;;;4967466;28;20412;-82
2023/08/12 19:23:55;;;;;;;1.17;1.08;;;29.00;76.20;;;;;;4972077;28;20027;-83
2023/08/12 19:26:20;;;;;;;1.92;1.30;;;29.00;75.80;;;;;;4972835;28;20084;-81
2023/08/12 19:28:46;;;;;;;2.38;1.67;;;29.00;75.90;;;;;;4970185;28;20038;-81
2023/08/12 19:31:13;;;;;;;2.05;1.60;;;29.00;76.10;;;;;;4964927;28;20042;-82
2023/08/12 19:33:39;;;;;;;2.47;1.30;;;29.00;76.40;;;;;;4961611;28;20034;-81
2023/08/12 19:36:05;;;;;;;3.05;1.38;;;29.00;76.10;;;;;;4962598;28;20485;-80
2023/08/12 19:38:30;;;;;;;2.35;1.40;;;29.00;76.50;;;;;;4968408;28;20050;-80
2023/08/12 19:40:57;;;;;;;2.42;1.40;;;29.00;76.90;;;;;;4966553;28;20039;-80
2023/08/12 19:43:22;;;;;;;1.42;1.30;;;29.00;77.20;;;;;;4961757;28;20094;-81
2023/08/12 19:45:48;;;;;;;1.77;1.20;;;29.00;77.00;;;;;;4962720;28;20055;-82
2023/08/12 19:48:14;;;;;;;2.45;1.27;;;29.00;77.40;;;;;;4959585;28;20489;-81
2023/08/12 19:50:42;;;;;;;1.63;1.42;;;28.90;77.60;;;;;;4959591;28;20031;-83
2023/08/12 19:53:07;;;;;;;2.10;1.20;;;28.90;78.00;;;;;;4971645;28;20165;-80
2023/08/12 19:55:33;;;;;;;2.08;1.42;;;28.80;77.90;;;;;;4972632;28;20499;-81
2023/08/12 19:57:59;;;;;;;1.65;1.45;;;28.80;78.60;;;;;;4972782;28;20058;-81
2023/08/12 20:00:24;;;;;;;1.40;1.30;;;28.70;78.60;;;;;;4973746;28;20130;-83
2023/08/12 20:02:50;;;;;;;1.48;1.25;;;28.70;79.30;;;;;;4970395;28;20043;-84
2023/08/12 20:05:19;;;;;;;1.23;1.10;;;28.70;79.30;;;;;;4960215;28;20390;-84
2023/08/12 20:07:47;;;;;;;1.95;1.30;;;28.70;79.70;;;;;;4966846;28;20378;-83
2023/08/12 20:10:14;;;;;;;2.30;1.35;;;28.70;80.00;;;;;;4945126;28;20131;-83
2023/08/12 20:12:40;;;;;;;1.48;1.20;;;28.70;80.20;;;;;;4961827;28;20038;-86
2023/08/12 20:15:06;;;;;;;3.33;1.45;;;28.70;80.40;;;;;;4968147;28;20043;-87
2023/08/12 20:17:33;;;;;;;4.15;1.70;;;28.60;80.30;;;;;;4968799;28;20039;-88
2023/08/12 20:20:00;;;;;;;7.22;2.00;;;28.60;80.40;;;;;;4974394;28;20047;-86
2023/08/12 20:22:25;;;;;;;3.33;1.90;;;28.60;80.90;;;;;;4961353;28;20140;-86
2023/08/12 20:24:51;;;;;;;4.75;1.92;;;28.60;81.30;;;;;;4957871;28;20114;-86
2023/08/12 20:27:17;;;;;;;5.07;2.13;;;28.60;81.70;;;;;;4945628;28;20215;-87
2023/08/12 20:29:42;;;;;;;9.85;2.20;;;28.60;81.70;;;;;;4966818;28;20039;-87
2023/08/12 20:32:09;;;;;;;4.60;1.80;;;28.60;81.60;;;;;;4965975;28;20108;-85
2023/08/12 20:34:35;;;;;;;6.78;2.15;;;28.60;81.60;;;;;;4957255;28;20532;-84
2023/08/12 20:37:00;;;;;;;4.05;1.88;;;28.60;81.90;;;;;;4974703;28;20105;-84
2023/08/12 20:39:26;;;;;;;7.85;1.83;;;28.60;82.30;;;;;;4976119;28;20043;-85
2023/08/12 20:41:52;;;;;;;6.95;2.20;;;28.50;82.80;;;;;;4974768;28;20118;-85
2023/08/12 20:44:18;;;;;;;6.45;2.40;;;28.50;83.00;;;;;;4959242;28;20030;-83
2023/08/12 20:46:43;;;;;;;4.75;2.03;;;28.50;83.20;;;;;;4975774;28;20047;-84
2023/08/12 20:49:10;;;;;;;6.03;2.13;;;28.50;83.20;;;;;;4971431;28;20040;-83
2023/08/12 20:51:35;;;;;;;5.07;2.33;;;28.50;83.40;;;;;;4958501;28;20482;-83
2023/08/12 20:54:01;;;;;;;4.95;1.90;;;28.40;83.60;;;;;;4939949;29;20054;-84
2023/08/12 20:56:27;;;;;;;4.80;2.00;;;28.40;83.60;;;;;;4961193;28;20130;-84
2023/08/12 20:58:53;;;;;;;5.97;2.10;;;28.40;83.90;;;;;;4976565;28;20035;-84
2023/08/12 21:01:18;;;;;;;2.47;1.67;;;28.40;84.00;;;;;;4975971;28;20039;-83
2023/08/12 21:03:44;;;;;;;5.47;1.70;;;28.30;83.90;;;;;;4976586;28;20066;-83
2023/08/12 21:06:10;;;;;;;5.72;1.90;;;28.30;83.80;;;;;;4974808;28;20464;-85
2023/08/12 21:08:35;;;;;;;4.82;1.77;;;28.30;83.70;;;;;;4976365;28;20038;-85
2023/08/12 21:11:01;;;;;;;4.80;2.05;;;28.30;83.60;;;;;;4976084;28;20031;-84
2023/08/12 21:13:27;;;;;;;6.03;1.90;;;28.30;82.90;;;;;;4966794;28;20057;-84
2023/08/12 21:15:53;;;;;;;5.70;2.10;;;28.20;82.30;;;;;;4954022;29;20119;-85
2023/08/12 21:18:18;;;;;;;4.45;1.95;;;28.20;82.70;;;;;;4956585;28;20069;-85
2023/08/12 21:20:44;;;;;;;3.53;2.20;;;28.20;82.80;;;;;;4972531;28;20070;-83
2023/08/12 21:23:10;;;;;;;3.72;1.80;;;28.20;83.20;;;;;;4964832;28;20455;-82
2023/08/12 21:25:36;;;;;;;2.90;2.15;;;28.10;83.70;;;;;;4957427;28;20051;-80
2023/08/12 21:28:01;;;;;;;4.30;2.25;;;28.10;84.10;;;;;;4963595;28;20114;-79
2023/08/12 21:30:27;;;;;;;2.80;1.83;;;28.10;84.40;;;;;;4974750;28;20097;-79
2023/08/12 21:32:54;;;;;;;3.15;2.00;;;28.10;84.70;;;;;;4965134;28;20441;-80
2023/08/12 21:35:19;;;;;;;2.63;1.70;;;28.10;83.60;;;;;;4956816;28;20039;-79
2023/08/12 21:37:45;;;;;;;1.90;1.60;;;28.00;83.50;;;;;;4961192;28;20035;-80
2023/08/12 21:40:12;;;;;;;4.57;1.92;;;27.90;83.80;;;;;;4971588;28;20038;-80
2023/08/12 21:42:37;;;;;;;1.90;1.70;;;28.00;83.80;;;;;;4971934;28;20477;-80
2023/08/12 21:45:04;;;;;;;3.60;1.95;;;27.90;82.90;;;;;;4962837;28;20049;-78
2023/08/12 21:47:29;;;;;;;2.65;1.88;;;27.90;83.00;;;;;;4968330;28;20046;-79
2023/08/12 21:49:55;;;;;;;1.98;1.65;;;27.80;82.50;;;;;;4965273;28;20040;-79
2023/08/12 21:52:21;;;;;;;2.05;1.75;;;27.80;82.80;;;;;;4956875;28;20039;-79
2023/08/12 21:54:47;;;;;;;1.92;1.55;;;27.80;82.20;;;;;;4960470;28;20047;-78
2023/08/12 21:57:13;;;;;;;1.92;1.40;;;27.80;82.10;;;;;;4939048;28;20038;-79
2023/08/12 21:59:38;;;;;;;1.80;1.50;;;27.80;81.80;;;;;;4967115;28;20126;-79
2023/08/12 22:02:04;;;;;;;1.80;1.60;;;27.70;81.10;;;;;;4974659;28;20496;-78
2023/08/12 22:04:31;;;;;;;1.98;1.20;;;27.70;80.90;;;;;;4963897;28;20035;-78
2023/08/12 22:06:57;;;;;;;1.77;1.45;;;27.70;80.70;;;;;;4961825;28;20049;-79
2023/08/12 22:09:23;;;;;;;1.90;1.63;;;27.70;80.60;;;;;;4973079;28;20023;-79
2023/08/12 22:11:48;;;;;;;2.92;1.75;;;27.70;80.00;;;;;;4972150;28;20050;-79
2023/08/12 22:14:15;;;;;;;1.98;1.77;;;27.70;79.80;;;;;;4966133;28;20046;-79
2023/08/12 22:16:40;;;;;;;3.17;1.55;;;27.70;79.80;;;;;;4952195;28;20051;-79
2023/08/12 22:19:06;;;;;;;2.65;1.77;;;27.60;80.60;;;;;;4974019;28;20042;-79
2023/08/12 22:21:32;;;;;;;2.33;1.42;;;27.60;80.70;;;;;;4967114;28;20039;-79
2023/08/12 22:23:57;;;;;;;4.22;1.60;;;27.60;81.10;;;;;;4970041;28;20074;-79
2023/08/12 22:26:23;;;;;;;4.43;1.83;;;27.60;81.40;;;;;;4973699;28;20050;-79
2023/08/12 22:28:48;;;;;;;3.78;1.75;;;27.60;81.80;;;;;;4968236;28;20122;-79
2023/08/12 22:31:14;;;;;;;2.65;2.08;;;27.60;81.60;;;;;;4964404;28;20412;-79
2023/08/12 22:33:40;;;;;;;2.97;2.08;;;27.50;81.40;;;;;;4955800;28;20393;-79
2023/08/12 22:36:08;;;;;;;2.30;2.00;;;27.50;81.60;;;;;;4969762;28;20067;-80
2023/08/12 22:38:35;;;;;;;2.80;1.95;;;27.50;81.70;;;;;;4973413;28;20030;-81
2023/08/12 22:41:01;;;;;;;2.45;2.10;;;27.40;81.90;;;;;;4964850;28;20045;-81
2023/08/12 22:43:26;;;;;;;2.40;1.75;;;27.40;81.90;;;;;;4955221;28;20043;-81
2023/08/12 22:45:52;;;;;;;4.03;2.33;;;27.40;82.10;;;;;;4959867;28;20497;-81
2023/08/12 22:48:18;;;;;;;4.32;2.28;;;27.40;82.10;;;;;;4955884;28;20058;-80
2023/08/12 22:50:44;;;;;;;2.25;1.83;;;27.30;81.80;;;;;;4958872;28;20035;-81
2023/08/12 22:53:12;;;;;;;3.85;2.70;;;27.30;82.20;;;;;;4957855;28;20047;-81
2023/08/12 22:55:39;;;;;;;3.20;2.10;;;27.30;82.30;;;;;;4955422;28;20034;-81
2023/08/12 22:58:04;;;;;;;2.33;1.83;;;27.30;82.20;;;;;;4937873;28;20035;-81
2023/08/12 23:00:30;;;;;;;4.30;2.22;;;27.30;82.20;;;;;;4956025;28;20107;-82
2023/08/12 23:02:56;;;;;;;2.47;2.10;;;27.20;82.30;;;;;;4957125;28;20070;-81
2023/08/12 23:05:21;;;;;;;3.42;2.50;;;27.20;82.50;;;;;;4938833;28;20035;-80
2023/08/12 23:07:47;;;;;;;3.05;2.33;;;27.20;82.70;;;;;;4964476;28;20046;-78
2023/08/12 23:10:13;;;;;;;3.90;1.90;;;27.20;82.80;;;;;;4974505;28;20034;-81
2023/08/12 23:12:39;;;;;;;2.17;1.73;;;27.20;83.00;;;;;;4972798;28;20039;-80
2023/08/12 23:15:05;;;;;;;4.00;2.25;;;27.20;83.20;;;;;;4968811;28;20393;-80
2023/08/12 23:17:31;;;;;;;2.22;1.80;;;27.20;83.20;;;;;;4968060;28;20039;-80
2023/08/12 23:19:56;;;;;;;2.40;1.90;;;27.20;83.20;;;;;;4955166;29;20580;-79
2023/08/12 23:22:22;;;;;;;4.00;2.20;;;27.20;82.90;;;;;;4960895;28;20043;-79
2023/08/12 23:24:48;;;;;;;2.72;1.85;;;27.20;83.20;;;;;;4970697;28;20078;-79
2023/08/12 23:27:13;;;;;;;2.88;2.10;;;27.20;83.30;;;;;;4973636;28;20385;-79
2023/08/12 23:29:39;;;;;;;4.43;2.42;;;27.20;83.20;;;;;;4968642;28;20355;-79
2023/08/12 23:32:05;;;;;;;4.43;2.20;;;27.20;83.40;;;;;;4961398;28;20040;-80
2023/08/12 23:34:32;;;;;;;3.20;2.40;;;27.20;83.60;;;;;;4971914;28;20043;-79